createdAt,value
2018-12-04T00:00:51.686Z,11.10
2018-12-04T00:03:19.863Z,11.10
2018-12-04T00:05:54.794Z,11.20
2018-12-04T00:08:33.387Z,11.20
2018-12-04T00:11:01.574Z,11.20
2018-12-04T00:13:36.310Z,11.20
2018-12-04T00:16:16.955Z,11.20
2018-12-04T00:18:45.419Z,11.20
2018-12-04T00:21:13.662Z,11.30
2018-12-04T00:23:41.837Z,11.30
2018-12-04T00:26:10.141Z,11.40
2018-12-04T00:28:44.470Z,11.40
2018-12-04T00:31:12.691Z,11.50
2018-12-04T00:33:40.913Z,11.50
2018-12-04T00:39:09.710Z,11.60
2018-12-04T00:41:43.943Z,11.40
2018-12-04T00:46:47.715Z,11.50
2018-12-04T00:49:15.878Z,11.40
2018-12-04T00:51:44.131Z,11.50
2018-12-04T00:54:12.293Z,11.50
2018-12-04T00:56:44.169Z,11.60
2018-12-04T00:59:12.388Z,11.60
2018-12-04T01:01:40.834Z,11.60
2018-12-04T01:04:09.042Z,11.50
2018-12-04T01:06:41.049Z,11.70
2018-12-04T01:09:10.211Z,11.60
2018-12-04T01:11:39.327Z,11.60
2018-12-04T01:14:07.506Z,11.60
2018-12-04T01:16:52.225Z,11.60
2018-12-04T01:19:23.622Z,11.70
2018-12-04T01:21:51.881Z,11.70
2018-12-04T01:24:20.095Z,11.70
2018-12-04T01:26:52.151Z,11.80
2018-12-04T01:29:28.329Z,11.70
2018-12-04T01:31:56.538Z,11.60
2018-12-04T01:34:24.710Z,11.60
2018-12-04T01:36:56.630Z,11.70
2018-12-04T01:39:37.964Z,11.60
2018-12-04T01:42:06.197Z,11.70
2018-12-04T01:44:34.407Z,11.70
2018-12-04T01:47:11.274Z,11.50
2018-12-04T01:49:51.909Z,11.60
2018-12-04T01:52:23.054Z,11.70
2018-12-04T01:54:51.844Z,11.70
2018-12-04T01:57:23.834Z,11.70
2018-12-04T01:59:52.099Z,11.60
2018-12-04T02:02:20.364Z,11.60
2018-12-04T02:04:52.381Z,11.60
2018-12-04T02:07:24.227Z,11.60
2018-12-04T02:10:06.188Z,11.60
2018-12-04T02:12:34.470Z,11.60
2018-12-04T02:15:02.655Z,11.70
2018-12-04T02:17:34.271Z,11.70
2018-12-04T02:20:02.456Z,11.60
2018-12-04T02:22:30.659Z,11.60
2018-12-04T02:24:58.821Z,11.60
2018-12-04T02:27:30.191Z,11.60
2018-12-04T02:30:11.508Z,11.60
2018-12-04T02:32:45.452Z,11.60
2018-12-04T02:35:13.709Z,11.70
2018-12-04T02:37:45.809Z,11.70
2018-12-04T02:40:15.611Z,11.70
2018-12-04T02:42:43.816Z,11.60
2018-12-04T02:45:11.981Z,11.60
2018-12-04T02:47:55.001Z,11.60
2018-12-04T02:50:36.211Z,11.60
2018-12-04T02:53:04.499Z,11.50
2018-12-04T02:55:47.832Z,11.60
2018-12-04T02:58:17.104Z,11.60
2018-12-04T03:00:45.364Z,11.60
2018-12-04T03:03:13.607Z,11.50
2018-12-04T03:05:41.927Z,11.50
2018-12-04T03:08:23.744Z,11.50
2018-12-04T03:11:06.345Z,11.50
2018-12-04T03:13:38.291Z,11.30
2018-12-04T03:16:06.462Z,11.20
2018-12-04T03:18:38.463Z,11.10
2018-12-04T03:21:20.365Z,11.00
2018-12-04T03:23:48.580Z,11.00
2018-12-04T03:26:20.846Z,10.80
2018-12-04T03:28:52.995Z,10.90
2018-12-04T03:31:21.283Z,10.70
2018-12-04T03:33:49.467Z,10.50
2018-12-04T03:36:17.646Z,10.20
2018-12-04T03:38:52.336Z,10.10
2018-12-04T03:41:20.510Z,10.10
2018-12-04T03:43:48.709Z,10.00
2018-12-04T03:46:16.860Z,9.80
2018-12-04T03:48:51.356Z,9.70
2018-12-04T03:51:19.580Z,9.70
2018-12-04T03:53:47.790Z,9.60
2018-12-04T03:56:15.949Z,9.60
2018-12-04T03:58:44.146Z,9.50
2018-12-04T04:01:12.342Z,9.50
2018-12-04T04:03:56.134Z,9.50
2018-12-04T04:06:26.031Z,9.30
2018-12-04T04:08:54.238Z,9.30
2018-12-04T04:11:22.886Z,9.30
2018-12-04T04:13:51.111Z,9.30
2018-12-04T04:16:22.911Z,9.30
2018-12-04T04:18:52.077Z,9.20
2018-12-04T04:21:23.960Z,9.30
2018-12-04T04:23:52.133Z,9.20
2018-12-04T04:26:20.894Z,9.10
2018-12-04T04:28:55.283Z,9.00
2018-12-04T04:31:23.453Z,9.00
2018-12-04T04:33:51.688Z,8.90
2018-12-04T04:36:19.879Z,8.80
2018-12-04T04:38:51.496Z,8.80
2018-12-04T04:41:21.267Z,8.70
2018-12-04T04:43:49.439Z,8.70
2018-12-04T04:46:30.331Z,8.70
2018-12-04T04:52:04.179Z,8.70
2018-12-04T04:54:32.378Z,8.70
2018-12-04T04:57:04.098Z,8.60
2018-12-04T04:59:35.778Z,8.50
2018-12-04T05:02:04.014Z,8.50
2018-12-04T05:04:38.742Z,8.50
2018-12-04T05:07:10.618Z,8.50
2018-12-04T05:09:38.754Z,8.50
2018-12-04T05:12:12.937Z,8.40
2018-12-04T05:14:41.147Z,8.50
2018-12-04T05:17:13.356Z,8.60
2018-12-04T05:19:41.534Z,8.50
2018-12-04T05:22:09.730Z,8.60
2018-12-04T05:24:37.886Z,8.50
2018-12-04T05:27:09.408Z,8.50
2018-12-04T05:29:37.570Z,8.60
2018-12-04T05:32:05.715Z,8.60
2018-12-04T05:34:33.929Z,8.60
2018-12-04T05:37:05.462Z,8.60
2018-12-04T05:39:33.621Z,8.70
2018-12-04T05:42:01.765Z,8.60
2018-12-04T05:44:29.927Z,8.60
2018-12-04T05:47:01.513Z,8.60
2018-12-04T05:49:29.708Z,8.50
2018-12-04T05:51:57.855Z,8.60
2018-12-04T05:54:26.060Z,8.70
2018-12-04T05:56:57.818Z,8.60
2018-12-04T05:59:26.901Z,8.60
2018-12-04T06:01:55.047Z,8.60
2018-12-04T06:04:23.223Z,8.60
2018-12-04T06:06:54.432Z,8.70
2018-12-04T06:09:22.589Z,8.60
2018-12-04T06:11:50.761Z,8.60
2018-12-04T06:14:18.969Z,8.70
2018-12-04T06:16:50.910Z,8.60
2018-12-04T06:19:19.110Z,8.60
2018-12-04T06:21:47.249Z,8.50
2018-12-04T06:24:15.542Z,8.60
2018-12-04T06:26:47.375Z,8.60
2018-12-04T06:29:15.562Z,8.60
2018-12-04T06:31:43.712Z,8.60
2018-12-04T06:34:11.914Z,8.60
2018-12-04T06:36:46.661Z,8.70
2018-12-04T06:39:14.967Z,8.70
2018-12-04T06:41:43.145Z,8.70
2018-12-04T06:44:11.362Z,8.80
2018-12-04T06:46:43.043Z,8.80
2018-12-04T06:49:11.324Z,8.60
2018-12-04T06:51:39.469Z,8.70
2018-12-04T06:54:07.652Z,8.70
2018-12-04T06:56:48.851Z,8.60
2018-12-04T06:59:16.995Z,8.70
2018-12-04T07:01:45.142Z,8.70
2018-12-04T07:04:13.397Z,8.60
2018-12-04T07:06:44.895Z,8.70
2018-12-04T07:09:13.043Z,8.70
2018-12-04T07:11:41.193Z,8.70
2018-12-04T07:14:09.373Z,8.70
2018-12-04T07:16:53.790Z,8.70
2018-12-04T07:19:22.191Z,8.70
2018-12-04T07:22:07.304Z,8.70
2018-12-04T07:24:51.701Z,8.80
2018-12-04T07:27:22.814Z,8.70
2018-12-04T07:29:50.999Z,8.60
2018-12-04T07:32:19.246Z,8.60
2018-12-04T07:34:47.497Z,8.70
2018-12-04T07:37:19.625Z,8.80
2018-12-04T07:39:47.781Z,8.90
2018-12-04T07:42:15.967Z,8.90
2018-12-04T07:44:44.140Z,8.80
2018-12-04T07:47:15.782Z,8.80
2018-12-04T07:49:43.961Z,8.80
2018-12-04T07:52:12.159Z,8.80
2018-12-04T07:54:40.305Z,8.80
2018-12-04T07:57:12.224Z,8.90
2018-12-04T07:59:40.410Z,8.80
2018-12-04T08:02:08.624Z,8.90
2018-12-04T08:04:36.857Z,8.80
2018-12-04T08:07:07.970Z,8.80
2018-12-04T08:09:36.150Z,8.80
2018-12-04T08:12:04.326Z,8.70
2018-12-04T08:14:32.494Z,8.80
2018-12-04T08:17:04.496Z,8.80
2018-12-04T08:19:32.665Z,9.00
2018-12-04T08:22:00.833Z,8.90
2018-12-04T08:24:28.986Z,8.90
2018-12-04T08:27:00.682Z,9.00
2018-12-04T08:29:28.863Z,9.00
2018-12-04T08:31:57.063Z,9.00
2018-12-04T08:34:25.235Z,9.00
2018-12-04T08:36:57.010Z,9.00
2018-12-04T08:39:25.982Z,9.00
2018-12-04T08:41:54.302Z,9.10
2018-12-04T08:44:22.478Z,9.10
2018-12-04T08:46:54.463Z,9.10
2018-12-04T08:49:23.024Z,8.90
2018-12-04T08:51:51.166Z,9.00
2018-12-04T08:54:19.375Z,9.00
2018-12-04T08:56:51.462Z,9.20
2018-12-04T08:59:19.622Z,9.20
2018-12-04T09:01:47.811Z,9.10
2018-12-04T09:04:16.041Z,9.10
2018-12-04T09:06:47.175Z,9.10
2018-12-04T09:09:15.462Z,9.00
2018-12-04T09:11:43.634Z,9.00
2018-12-04T09:14:11.810Z,9.00
2018-12-04T09:16:43.402Z,9.10
2018-12-04T09:19:11.607Z,9.00
2018-12-04T09:21:39.914Z,9.10
2018-12-04T09:24:08.213Z,9.10
2018-12-04T09:27:05.370Z,9.10
2018-12-04T09:29:30.039Z,9.10
2018-12-04T09:31:58.369Z,9.00
2018-12-04T09:34:30.053Z,9.00
2018-12-04T09:37:01.323Z,8.90
2018-12-04T09:39:29.510Z,9.00
2018-12-04T09:41:57.680Z,9.00
2018-12-04T09:44:38.686Z,8.80
2018-12-04T09:47:19.691Z,8.90
2018-12-04T09:49:47.898Z,8.90
2018-12-04T09:52:16.125Z,8.80
2018-12-04T09:54:44.346Z,8.70
2018-12-04T09:57:15.766Z,8.70
2018-12-04T09:59:43.944Z,8.70
2018-12-04T10:02:12.575Z,8.90
2018-12-04T10:04:40.914Z,8.90
2018-12-04T10:07:12.737Z,9.00
2018-12-04T10:10:00.494Z,8.90
2018-12-04T10:12:32.015Z,9.00
2018-12-04T10:15:00.219Z,9.00
2018-12-04T10:17:32.077Z,8.80
2018-12-04T10:20:00.223Z,8.80
2018-12-04T10:22:28.446Z,8.80
2018-12-04T10:25:09.459Z,8.70
2018-12-04T10:27:40.608Z,8.80
2018-12-04T10:30:28.592Z,8.70
2018-12-04T10:32:56.807Z,8.80
2018-12-04T10:35:24.957Z,8.70
2018-12-04T10:37:56.143Z,8.80
2018-12-04T10:40:24.329Z,8.80
2018-12-04T10:42:52.534Z,8.90
2018-12-04T10:45:27.929Z,8.90
2018-12-04T10:47:59.910Z,8.80
2018-12-04T10:50:42.915Z,8.70
2018-12-04T10:53:11.232Z,8.90
2018-12-04T10:55:39.397Z,8.90
2018-12-04T10:58:20.621Z,9.10
2018-12-04T11:01:04.187Z,9.20
2018-12-04T11:03:38.328Z,9.10
2018-12-04T11:06:06.545Z,9.20
2018-12-04T11:08:53.706Z,9.10
2018-12-04T11:11:21.861Z,9.10
2018-12-04T11:13:50.044Z,9.10
2018-12-04T11:16:18.306Z,9.00
2018-12-04T11:18:46.600Z,9.10
2018-12-04T11:21:14.776Z,9.10
2018-12-04T11:23:42.977Z,9.20
2018-12-04T11:26:11.152Z,9.30
2018-12-04T11:28:39.353Z,9.40
2018-12-04T11:31:07.545Z,9.40
2018-12-04T11:33:35.702Z,9.40
2018-12-04T11:36:03.890Z,9.20
2018-12-04T11:38:35.410Z,9.30
2018-12-04T11:41:03.670Z,9.20
2018-12-04T11:43:31.865Z,9.30
2018-12-04T11:46:00.066Z,9.10
2018-12-04T11:48:31.911Z,9.10
2018-12-04T11:51:01.831Z,9.00
2018-12-04T11:53:30.038Z,9.00
2018-12-04T11:55:58.272Z,8.80
2018-12-04T11:58:30.057Z,8.70
2018-12-04T12:00:58.229Z,8.70
2018-12-04T12:03:26.433Z,8.60
2018-12-04T12:05:54.624Z,8.60
2018-12-04T12:08:29.071Z,8.60
2018-12-04T12:10:57.209Z,8.60
2018-12-04T12:13:25.367Z,8.70
2018-12-04T12:15:53.504Z,8.70
2018-12-04T12:18:24.632Z,8.60
2018-12-04T12:20:52.829Z,8.60
2018-12-04T12:23:21.003Z,8.80
2018-12-04T12:25:49.154Z,8.70
2018-12-04T12:28:22.998Z,8.80
2018-12-04T12:30:51.140Z,8.90
2018-12-04T12:33:19.314Z,8.90
2018-12-04T12:35:47.461Z,9.00
2018-12-04T12:38:19.471Z,8.80
2018-12-04T12:40:47.647Z,8.90
2018-12-04T12:43:15.811Z,8.90
2018-12-04T12:45:43.980Z,8.80
2018-12-04T12:48:15.063Z,8.90
2018-12-04T12:50:43.227Z,9.00
2018-12-04T12:53:11.402Z,9.10
2018-12-04T12:55:39.582Z,9.20
2018-12-04T12:58:15.829Z,9.50
2018-12-04T13:00:44.010Z,9.40
2018-12-04T13:03:12.630Z,9.30
2018-12-04T13:05:40.807Z,9.50
2018-12-04T13:08:12.055Z,9.40
2018-12-04T13:10:40.240Z,9.30
2018-12-04T13:13:08.856Z,9.20
2018-12-04T13:15:37.104Z,9.10
2018-12-04T13:18:08.990Z,9.10
2018-12-04T13:20:37.181Z,9.00
2018-12-04T13:23:05.433Z,9.10
2018-12-04T13:25:33.722Z,9.00
2018-12-04T13:28:05.735Z,8.90
2018-12-04T13:30:33.924Z,8.70
2018-12-04T13:33:02.127Z,8.70
2018-12-04T13:35:30.310Z,8.70
2018-12-04T13:38:02.095Z,8.70
2018-12-04T13:40:30.241Z,8.80
2018-12-04T13:42:58.523Z,8.70
2018-12-04T13:45:26.726Z,8.70
2018-12-04T13:48:00.970Z,8.60
2018-12-04T13:50:29.241Z,8.80
2018-12-04T13:52:57.409Z,8.80
2018-12-04T13:55:25.626Z,8.70
2018-12-04T13:57:53.881Z,8.90
2018-12-04T14:00:22.078Z,9.10
2018-12-04T14:02:50.381Z,9.00
2018-12-04T14:05:18.573Z,8.80
2018-12-04T14:07:59.528Z,8.60
2018-12-04T14:10:28.127Z,8.60
2018-12-04T14:12:59.495Z,8.60
2018-12-04T14:15:27.791Z,8.60
2018-12-04T14:18:01.966Z,8.60
2018-12-04T14:20:33.976Z,8.60
2018-12-04T14:23:02.240Z,8.40
2018-12-04T14:28:32.615Z,8.50
2018-12-04T14:31:00.787Z,8.50
2018-12-04T14:33:28.999Z,8.40
2018-12-04T14:35:57.201Z,8.50
2018-12-04T14:38:28.350Z,8.50
2018-12-04T14:40:56.554Z,8.30
2018-12-04T14:43:24.863Z,8.30
2018-12-04T14:45:53.086Z,8.20
2018-12-04T14:48:24.258Z,8.10
2018-12-04T14:50:52.449Z,8.00
2018-12-04T14:53:20.663Z,8.10
2018-12-04T14:55:48.985Z,7.90
2018-12-04T14:58:18.607Z,7.90
2018-12-04T15:00:46.809Z,7.80
2018-12-04T15:03:15.229Z,7.80
2018-12-04T15:05:43.523Z,7.90
2018-12-04T15:08:15.315Z,7.80
2018-12-04T15:10:43.703Z,7.80
2018-12-04T15:13:11.975Z,7.70
2018-12-04T15:15:40.293Z,7.70
2018-12-04T15:18:12.286Z,7.60
2018-12-04T15:20:40.496Z,7.50
2018-12-04T15:23:08.738Z,7.40
2018-12-04T15:25:37.030Z,7.40
2018-12-04T15:28:08.949Z,7.50
2018-12-04T15:30:37.309Z,7.40
2018-12-04T15:33:05.997Z,7.40
2018-12-04T15:35:34.255Z,7.40
2018-12-04T15:38:05.677Z,7.40
2018-12-04T15:40:34.120Z,7.40
2018-12-04T15:43:02.510Z,7.40
2018-12-04T15:45:30.791Z,7.30
2018-12-04T15:48:02.890Z,7.30
2018-12-04T15:50:31.118Z,7.20
2018-12-04T15:52:59.366Z,7.20
2018-12-04T15:55:27.554Z,7.10
2018-12-04T15:57:59.531Z,7.00
2018-12-04T16:00:27.692Z,7.00
2018-12-04T16:02:55.871Z,6.90
2018-12-04T16:05:24.080Z,7.00
2018-12-04T16:07:59.843Z,6.90
2018-12-04T16:10:28.039Z,6.90
2018-12-04T16:12:56.197Z,6.80
2018-12-04T16:15:24.362Z,6.80
2018-12-04T16:17:55.484Z,6.70
2018-12-04T16:20:23.662Z,6.70
2018-12-04T16:22:51.902Z,6.70
2018-12-04T16:25:20.107Z,6.70
2018-12-04T16:27:51.658Z,6.70
2018-12-04T16:30:19.813Z,6.70
2018-12-04T16:32:47.974Z,6.70
2018-12-04T16:35:16.240Z,6.70
2018-12-04T16:37:48.239Z,6.70
2018-12-04T16:40:16.435Z,6.70
2018-12-04T16:42:44.599Z,6.70
2018-12-04T16:45:12.868Z,6.60
2018-12-04T16:47:44.299Z,6.60
2018-12-04T16:50:12.550Z,6.60
2018-12-04T16:52:40.710Z,6.60
2018-12-04T16:55:08.881Z,6.50
2018-12-04T16:57:40.182Z,6.50
2018-12-04T17:00:20.888Z,6.60
2018-12-04T17:02:49.061Z,6.40
2018-12-04T17:05:17.276Z,6.40
2018-12-04T17:07:48.750Z,6.30
2018-12-04T17:10:22.471Z,6.40
2018-12-04T17:12:47.203Z,6.40
2018-12-04T17:15:15.672Z,6.30
2018-12-04T17:17:47.225Z,6.30
2018-12-04T17:20:15.421Z,6.30
2018-12-04T17:22:43.614Z,6.20
2018-12-04T17:25:11.880Z,6.20
2018-12-04T17:27:43.558Z,6.20
2018-12-04T17:30:11.898Z,6.20
2018-12-04T17:32:40.317Z,6.20
2018-12-04T17:35:08.689Z,6.10
2018-12-04T17:37:40.475Z,6.20
2018-12-04T17:40:08.925Z,6.10
2018-12-04T17:42:37.237Z,6.10
2018-12-04T17:45:05.921Z,6.10
2018-12-04T17:47:40.839Z,6.00
2018-12-04T17:50:14.731Z,5.90
2018-12-04T17:52:42.953Z,5.90
2018-12-04T17:55:24.235Z,5.90
2018-12-04T17:57:55.701Z,5.80
2018-12-04T18:00:32.139Z,5.80
2018-12-04T18:03:13.037Z,5.80
2018-12-04T18:05:41.255Z,5.70
2018-12-04T18:08:15.335Z,5.70
2018-12-04T18:10:43.561Z,5.80
2018-12-04T18:13:11.849Z,5.70
2018-12-04T18:15:40.062Z,5.70
2018-12-04T18:18:11.729Z,5.70
2018-12-04T18:20:39.919Z,5.70
2018-12-04T18:23:08.065Z,5.60
2018-12-04T18:25:36.280Z,5.60
2018-12-04T18:28:07.361Z,5.60
2018-12-04T18:30:35.513Z,5.50
2018-12-04T18:33:03.702Z,5.30
2018-12-04T18:35:31.878Z,5.40
2018-12-04T18:38:03.280Z,5.30
2018-12-04T18:40:31.508Z,5.20
2018-12-04T18:42:59.669Z,5.10
2018-12-04T18:45:27.891Z,5.10
2018-12-04T18:47:59.739Z,5.10
2018-12-04T18:50:28.289Z,5.10
2018-12-04T18:52:56.469Z,5.00
2018-12-04T18:55:24.825Z,5.10
2018-12-04T18:57:53.014Z,5.10
2018-12-04T19:00:21.225Z,5.10
2018-12-04T19:02:49.474Z,5.00
2018-12-04T19:05:17.700Z,5.00
2018-12-04T19:07:49.075Z,5.00
2018-12-04T19:10:17.274Z,5.00
2018-12-04T19:12:45.446Z,4.90
2018-12-04T19:15:13.752Z,4.90
2018-12-04T19:17:44.977Z,5.00
2018-12-04T19:20:13.176Z,5.00
2018-12-04T19:22:42.099Z,5.00
2018-12-04T19:25:10.443Z,4.80
2018-12-04T19:27:42.502Z,4.80
2018-12-04T19:30:11.759Z,4.70
2018-12-04T19:32:39.977Z,4.80
2018-12-04T19:35:09.779Z,4.70
2018-12-04T19:37:41.799Z,4.60
2018-12-04T19:40:11.974Z,4.70
2018-12-04T19:42:42.186Z,4.60
2018-12-04T19:45:10.378Z,4.60
2018-12-04T19:47:41.597Z,4.50
2018-12-04T19:50:10.134Z,4.50
2018-12-04T19:52:38.341Z,4.40
2018-12-04T19:55:06.938Z,4.30
2018-12-04T19:57:38.090Z,4.30
2018-12-04T20:00:08.079Z,4.20
2018-12-04T20:02:36.339Z,4.10
2018-12-04T20:05:04.920Z,4.10
2018-12-04T20:07:36.347Z,4.00
2018-12-04T20:10:04.738Z,4.10
2018-12-04T20:12:32.952Z,4.00
2018-12-04T20:15:01.168Z,4.00
2018-12-04T20:17:32.729Z,3.90
2018-12-04T20:20:01.029Z,4.00
2018-12-04T20:22:29.215Z,3.90
2018-12-04T20:24:57.648Z,3.90
2018-12-04T20:27:28.927Z,3.90
2018-12-04T20:29:57.210Z,3.90
2018-12-04T20:32:38.683Z,3.90
2018-12-04T20:35:07.013Z,3.90
2018-12-04T20:37:38.729Z,3.90
2018-12-04T20:40:06.990Z,3.80
2018-12-04T20:42:35.324Z,3.70
2018-12-04T20:45:03.684Z,3.80
2018-12-04T20:47:35.480Z,3.70
2018-12-04T20:50:04.235Z,3.70
2018-12-04T20:52:32.542Z,3.70
2018-12-04T20:55:08.320Z,3.70
2018-12-04T20:57:34.885Z,3.60
2018-12-04T21:00:05.477Z,3.70
2018-12-04T21:02:33.936Z,3.70
2018-12-04T21:05:02.410Z,3.70
2018-12-04T21:07:34.143Z,3.70
2018-12-04T21:10:02.426Z,3.60
2018-12-04T21:12:30.886Z,3.60
2018-12-04T21:14:59.152Z,3.60
2018-12-04T21:17:27.424Z,3.70
2018-12-04T21:47:53.748Z,3.90
2018-12-04T21:50:22.149Z,3.90
2018-12-04T21:52:55.323Z,3.90
2018-12-04T21:55:23.598Z,3.80
2018-12-04T21:57:57.556Z,3.80
2018-12-04T22:00:33.414Z,3.80
2018-12-04T22:03:01.744Z,3.80
2018-12-04T22:05:30.005Z,3.90
2018-12-04T22:08:11.133Z,3.80
2018-12-04T22:10:42.982Z,4.00
2018-12-04T22:13:27.161Z,4.00
2018-12-04T22:16:07.897Z,4.00
2018-12-04T22:18:37.899Z,4.00
2018-12-04T22:21:09.308Z,3.90
2018-12-04T22:23:51.541Z,3.90
2018-12-04T22:26:25.504Z,3.80
2018-12-04T22:29:09.955Z,3.90
2018-12-04T22:31:38.235Z,3.80
2018-12-04T22:34:20.787Z,3.70
